sensor_id;sensor_type;location;lat;lon;timestamp;P1;durP1;ratioP1;P2;durP2;ratioP2
41456;SDS011;27197;51.752;5.220;2022-09-17T00:00:30;4.08;;;1.10;;
41456;SDS011;27197;51.752;5.220;2022-09-17T00:03:00;3.30;;;1.25;;
41456;SDS011;27197;51.752;5.220;2022-09-17T00:05:30;5.20;;;1.02;;
41456;SDS011;27197;51.752;5.220;2022-09-17T00:08:03;3.17;;;0.88;;
41456;SDS011;27197;51.752;5.220;2022-09-17T00:10:39;2.70;;;0.82;;
41456;SDS011;27197;51.752;5.220;2022-09-17T00:13:11;2.90;;;0.80;;
41456;SDS011;27197;51.752;5.220;2022-09-17T00:15:42;1.80;;;0.78;;
41456;SDS011;27197;51.752;5.220;2022-09-17T00:18:14;3.67;;;1.02;;
41456;SDS011;27197;51.752;5.220;2022-09-17T00:20:46;4.60;;;1.17;;
41456;SDS011;27197;51.752;5.220;2022-09-17T00:23:18;4.17;;;1.12;;
41456;SDS011;27197;51.752;5.220;2022-09-17T00:25:49;3.17;;;0.78;;
41456;SDS011;27197;51.752;5.220;2022-09-17T00:28:21;2.75;;;0.90;;
41456;SDS011;27197;51.752;5.220;2022-09-17T00:30:52;3.12;;;1.00;;
41456;SDS011;27197;51.752;5.220;2022-09-17T00:33:26;2.95;;;1.00;;
41456;SDS011;27197;51.752;5.220;2022-09-17T00:36:01;3.22;;;1.27;;
41456;SDS011;27197;51.752;5.220;2022-09-17T00:38:33;3.52;;;0.85;;
41456;SDS011;27197;51.752;5.220;2022-09-17T00:41:03;2.87;;;1.05;;
41456;SDS011;27197;51.752;5.220;2022-09-17T00:43:43;3.95;;;1.10;;
41456;SDS011;27197;51.752;5.220;2022-09-17T00:46:26;7.97;;;1.77;;
41456;SDS011;27197;51.752;5.220;2022-09-17T00:49:11;7.53;;;1.83;;
41456;SDS011;27197;51.752;5.220;2022-09-17T00:51:42;3.12;;;1.00;;
41456;SDS011;27197;51.752;5.220;2022-09-17T00:54:14;3.00;;;1.10;;
41456;SDS011;27197;51.752;5.220;2022-09-17T00:56:46;3.62;;;0.80;;
41456;SDS011;27197;51.752;5.220;2022-09-17T00:59:18;4.58;;;1.30;;
41456;SDS011;27197;51.752;5.220;2022-09-17T01:01:54;3.83;;;1.07;;
41456;SDS011;27197;51.752;5.220;2022-09-17T01:04:25;2.87;;;0.85;;
41456;SDS011;27197;51.752;5.220;2022-09-17T01:07:15;4.10;;;1.05;;
41456;SDS011;27197;51.752;5.220;2022-09-17T01:15:53;3.70;;;1.00;;
41456;SDS011;27197;51.752;5.220;2022-09-17T01:18:40;3.20;;;1.25;;
41456;SDS011;27197;51.752;5.220;2022-09-17T01:24:05;2.12;;;0.80;;
41456;SDS011;27197;51.752;5.220;2022-09-17T01:29:42;4.55;;;1.10;;
41456;SDS011;27197;51.752;5.220;2022-09-17T01:32:36;2.83;;;0.90;;
41456;SDS011;27197;51.752;5.220;2022-09-17T01:40:34;3.02;;;1.07;;
41456;SDS011;27197;51.752;5.220;2022-09-17T01:43:03;3.35;;;1.00;;
41456;SDS011;27197;51.752;5.220;2022-09-17T01:45:39;3.10;;;1.27;;
41456;SDS011;27197;51.752;5.220;2022-09-17T01:48:11;4.00;;;0.95;;
41456;SDS011;27197;51.752;5.220;2022-09-17T01:50:57;6.17;;;1.10;;
41456;SDS011;27197;51.752;5.220;2022-09-17T01:53:34;2.72;;;0.98;;
41456;SDS011;27197;51.752;5.220;2022-09-17T01:56:00;2.20;;;0.90;;
41456;SDS011;27197;51.752;5.220;2022-09-17T01:58:33;6.55;;;1.47;;
41456;SDS011;27197;51.752;5.220;2022-09-17T02:01:04;2.55;;;1.12;;
41456;SDS011;27197;51.752;5.220;2022-09-17T02:03:55;3.58;;;1.00;;
41456;SDS011;27197;51.752;5.220;2022-09-17T02:06:24;3.40;;;1.10;;
41456;SDS011;27197;51.752;5.220;2022-09-17T02:09:02;3.02;;;1.00;;
41456;SDS011;27197;51.752;5.220;2022-09-17T02:11:45;2.90;;;0.82;;
41456;SDS011;27197;51.752;5.220;2022-09-17T02:14:19;3.05;;;1.10;;
41456;SDS011;27197;51.752;5.220;2022-09-17T02:16:54;2.80;;;1.05;;
41456;SDS011;27197;51.752;5.220;2022-09-17T02:19:28;3.85;;;1.00;;
41456;SDS011;27197;51.752;5.220;2022-09-17T02:22:01;4.15;;;1.35;;
41456;SDS011;27197;51.752;5.220;2022-09-17T02:25:00;2.85;;;0.90;;
41456;SDS011;27197;51.752;5.220;2022-09-17T02:30:23;4.67;;;1.00;;
41456;SDS011;27197;51.752;5.220;2022-09-17T02:32:56;4.35;;;1.20;;
41456;SDS011;27197;51.752;5.220;2022-09-17T02:35:29;3.15;;;0.82;;
41456;SDS011;27197;51.752;5.220;2022-09-17T02:38:01;2.87;;;0.98;;
41456;SDS011;27197;51.752;5.220;2022-09-17T02:40:38;3.65;;;0.93;;
41456;SDS011;27197;51.752;5.220;2022-09-17T02:43:18;2.83;;;1.27;;
41456;SDS011;27197;51.752;5.220;2022-09-17T02:54:22;2.08;;;0.68;;
41456;SDS011;27197;51.752;5.220;2022-09-17T03:02:33;3.50;;;1.10;;
41456;SDS011;27197;51.752;5.220;2022-09-17T03:05:21;2.58;;;0.90;;
41456;SDS011;27197;51.752;5.220;2022-09-17T03:07:48;2.17;;;0.82;;
41456;SDS011;27197;51.752;5.220;2022-09-17T03:10:20;2.72;;;0.98;;
41456;SDS011;27197;51.752;5.220;2022-09-17T03:12:51;3.67;;;0.88;;
41456;SDS011;27197;51.752;5.220;2022-09-17T03:15:24;2.12;;;0.90;;
41456;SDS011;27197;51.752;5.220;2022-09-17T03:17:53;4.47;;;1.12;;
41456;SDS011;27197;51.752;5.220;2022-09-17T03:20:23;2.85;;;0.93;;
41456;SDS011;27197;51.752;5.220;2022-09-17T03:22:53;2.87;;;0.90;;
41456;SDS011;27197;51.752;5.220;2022-09-17T03:25:23;3.70;;;0.90;;
41456;SDS011;27197;51.752;5.220;2022-09-17T03:27:53;2.33;;;0.90;;
41456;SDS011;27197;51.752;5.220;2022-09-17T03:30:22;3.30;;;0.80;;
41456;SDS011;27197;51.752;5.220;2022-09-17T03:32:54;4.00;;;0.90;;
41456;SDS011;27197;51.752;5.220;2022-09-17T03:35:24;2.37;;;0.90;;
41456;SDS011;27197;51.752;5.220;2022-09-17T03:37:54;3.05;;;1.27;;
41456;SDS011;27197;51.752;5.220;2022-09-17T03:40:24;2.90;;;0.82;;
41456;SDS011;27197;51.752;5.220;2022-09-17T03:42:57;4.33;;;0.90;;
41456;SDS011;27197;51.752;5.220;2022-09-17T03:45:32;2.08;;;0.70;;
41456;SDS011;27197;51.752;5.220;2022-09-17T03:48:02;2.02;;;0.70;;
41456;SDS011;27197;51.752;5.220;2022-09-17T03:50:33;3.40;;;0.90;;
41456;SDS011;27197;51.752;5.220;2022-09-17T03:53:04;3.45;;;1.10;;
41456;SDS011;27197;51.752;5.220;2022-09-17T03:55:36;2.50;;;0.80;;
41456;SDS011;27197;51.752;5.220;2022-09-17T03:58:07;3.20;;;1.00;;
41456;SDS011;27197;51.752;5.220;2022-09-17T04:00:37;3.37;;;1.00;;
41456;SDS011;27197;51.752;5.220;2022-09-17T04:03:06;3.60;;;1.00;;
41456;SDS011;27197;51.752;5.220;2022-09-17T04:05:36;2.40;;;1.07;;
41456;SDS011;27197;51.752;5.220;2022-09-17T04:08:06;3.37;;;0.80;;
41456;SDS011;27197;51.752;5.220;2022-09-17T04:10:39;2.70;;;0.90;;
41456;SDS011;27197;51.752;5.220;2022-09-17T04:13:10;6.22;;;1.35;;
41456;SDS011;27197;51.752;5.220;2022-09-17T04:15:43;3.40;;;0.82;;
41456;SDS011;27197;51.752;5.220;2022-09-17T04:18:15;5.62;;;1.10;;
41456;SDS011;27197;51.752;5.220;2022-09-17T04:20:46;4.62;;;1.17;;
41456;SDS011;27197;51.752;5.220;2022-09-17T04:23:16;4.75;;;1.40;;
41456;SDS011;27197;51.752;5.220;2022-09-17T04:25:48;3.65;;;0.80;;
41456;SDS011;27197;51.752;5.220;2022-09-17T04:28:20;4.20;;;1.00;;
41456;SDS011;27197;51.752;5.220;2022-09-17T04:30:49;2.42;;;1.20;;
41456;SDS011;27197;51.752;5.220;2022-09-17T04:33:21;2.72;;;0.90;;
41456;SDS011;27197;51.752;5.220;2022-09-17T04:35:50;1.07;;;0.60;;
41456;SDS011;27197;51.752;5.220;2022-09-17T04:38:24;3.08;;;0.95;;
41456;SDS011;27197;51.752;5.220;2022-09-17T04:40:53;4.08;;;1.05;;
41456;SDS011;27197;51.752;5.220;2022-09-17T04:43:23;3.42;;;0.90;;
41456;SDS011;27197;51.752;5.220;2022-09-17T04:45:56;1.67;;;0.60;;
41456;SDS011;27197;51.752;5.220;2022-09-17T04:48:28;3.30;;;0.93;;
41456;SDS011;27197;51.752;5.220;2022-09-17T04:51:03;4.20;;;0.80;;
41456;SDS011;27197;51.752;5.220;2022-09-17T04:53:33;2.67;;;0.90;;
41456;SDS011;27197;51.752;5.220;2022-09-17T04:56:04;3.15;;;0.85;;
41456;SDS011;27197;51.752;5.220;2022-09-17T04:58:37;2.27;;;0.80;;
41456;SDS011;27197;51.752;5.220;2022-09-17T05:01:06;4.00;;;0.80;;
41456;SDS011;27197;51.752;5.220;2022-09-17T05:03:40;3.67;;;0.80;;
41456;SDS011;27197;51.752;5.220;2022-09-17T05:06:10;2.45;;;0.88;;
41456;SDS011;27197;51.752;5.220;2022-09-17T05:08:41;2.33;;;1.30;;
41456;SDS011;27197;51.752;5.220;2022-09-17T05:11:12;3.70;;;1.30;;
41456;SDS011;27197;51.752;5.220;2022-09-17T05:13:42;2.95;;;0.72;;
41456;SDS011;27197;51.752;5.220;2022-09-17T05:16:17;4.35;;;1.00;;
41456;SDS011;27197;51.752;5.220;2022-09-17T05:18:47;2.67;;;1.02;;
41456;SDS011;27197;51.752;5.220;2022-09-17T05:21:17;2.27;;;0.80;;
41456;SDS011;27197;51.752;5.220;2022-09-17T05:23:47;2.98;;;1.10;;
41456;SDS011;27197;51.752;5.220;2022-09-17T05:26:17;4.58;;;0.90;;
41456;SDS011;27197;51.752;5.220;2022-09-17T05:28:47;4.95;;;1.22;;
41456;SDS011;27197;51.752;5.220;2022-09-17T05:31:17;4.30;;;1.30;;
41456;SDS011;27197;51.752;5.220;2022-09-17T05:33:47;5.67;;;0.85;;
41456;SDS011;27197;51.752;5.220;2022-09-17T05:36:17;2.08;;;0.70;;
41456;SDS011;27197;51.752;5.220;2022-09-17T05:38:48;2.30;;;0.90;;
41456;SDS011;27197;51.752;5.220;2022-09-17T05:41:19;2.35;;;0.75;;
41456;SDS011;27197;51.752;5.220;2022-09-17T05:43:50;1.32;;;0.60;;
41456;SDS011;27197;51.752;5.220;2022-09-17T05:46:20;1.70;;;0.68;;
41456;SDS011;27197;51.752;5.220;2022-09-17T05:48:54;3.37;;;0.70;;
41456;SDS011;27197;51.752;5.220;2022-09-17T05:51:25;2.30;;;0.75;;
41456;SDS011;27197;51.752;5.220;2022-09-17T05:53:55;3.02;;;0.98;;
41456;SDS011;27197;51.752;5.220;2022-09-17T05:56:26;2.42;;;0.70;;
41456;SDS011;27197;51.752;5.220;2022-09-17T05:58:57;2.08;;;0.95;;
41456;SDS011;27197;51.752;5.220;2022-09-17T06:01:27;3.58;;;1.10;;
41456;SDS011;27197;51.752;5.220;2022-09-17T06:03:57;2.33;;;0.80;;
41456;SDS011;27197;51.752;5.220;2022-09-17T06:06:30;3.05;;;0.88;;
41456;SDS011;27197;51.752;5.220;2022-09-17T06:09:02;3.75;;;0.55;;
41456;SDS011;27197;51.752;5.220;2022-09-17T06:11:33;2.92;;;0.78;;
41456;SDS011;27197;51.752;5.220;2022-09-17T06:14:08;3.22;;;0.85;;
41456;SDS011;27197;51.752;5.220;2022-09-17T06:16:38;4.60;;;1.10;;
41456;SDS011;27197;51.752;5.220;2022-09-17T06:19:10;3.30;;;0.80;;
41456;SDS011;27197;51.752;5.220;2022-09-17T06:21:40;3.90;;;0.85;;
41456;SDS011;27197;51.752;5.220;2022-09-17T06:24:10;3.30;;;0.88;;
41456;SDS011;27197;51.752;5.220;2022-09-17T06:26:44;2.62;;;0.93;;
41456;SDS011;27197;51.752;5.220;2022-09-17T06:29:15;2.50;;;0.85;;
41456;SDS011;27197;51.752;5.220;2022-09-17T06:31:49;2.42;;;0.80;;
41456;SDS011;27197;51.752;5.220;2022-09-17T06:34:18;1.85;;;0.70;;
41456;SDS011;27197;51.752;5.220;2022-09-17T06:36:52;4.83;;;0.80;;
41456;SDS011;27197;51.752;5.220;2022-09-17T06:39:28;2.80;;;0.70;;
41456;SDS011;27197;51.752;5.220;2022-09-17T06:41:58;1.45;;;0.70;;
41456;SDS011;27197;51.752;5.220;2022-09-17T06:44:29;2.83;;;0.68;;
41456;SDS011;27197;51.752;5.220;2022-09-17T06:47:00;3.12;;;1.15;;
41456;SDS011;27197;51.752;5.220;2022-09-17T06:49:30;4.58;;;1.12;;
41456;SDS011;27197;51.752;5.220;2022-09-17T06:51:59;2.47;;;0.80;;
41456;SDS011;27197;51.752;5.220;2022-09-17T06:54:31;3.80;;;0.80;;
41456;SDS011;27197;51.752;5.220;2022-09-17T06:57:01;3.30;;;0.72;;
41456;SDS011;27197;51.752;5.220;2022-09-17T06:59:31;2.55;;;0.98;;
41456;SDS011;27197;51.752;5.220;2022-09-17T07:02:00;3.22;;;0.95;;
41456;SDS011;27197;51.752;5.220;2022-09-17T07:04:30;2.70;;;0.70;;
41456;SDS011;27197;51.752;5.220;2022-09-17T07:07:04;2.15;;;0.70;;
41456;SDS011;27197;51.752;5.220;2022-09-17T07:09:34;1.65;;;0.70;;
41456;SDS011;27197;51.752;5.220;2022-09-17T07:12:07;2.50;;;0.70;;
41456;SDS011;27197;51.752;5.220;2022-09-17T07:14:40;2.62;;;0.72;;
41456;SDS011;27197;51.752;5.220;2022-09-17T07:17:11;2.05;;;0.60;;
41456;SDS011;27197;51.752;5.220;2022-09-17T07:19:42;2.75;;;0.75;;
41456;SDS011;27197;51.752;5.220;2022-09-17T07:22:12;3.95;;;0.68;;
41456;SDS011;27197;51.752;5.220;2022-09-17T07:24:42;3.22;;;0.80;;
41456;SDS011;27197;51.752;5.220;2022-09-17T07:27:13;2.40;;;1.10;;
41456;SDS011;27197;51.752;5.220;2022-09-17T07:29:43;3.58;;;0.93;;
41456;SDS011;27197;51.752;5.220;2022-09-17T07:32:13;5.90;;;1.05;;
41456;SDS011;27197;51.752;5.220;2022-09-17T07:34:43;2.65;;;1.17;;
41456;SDS011;27197;51.752;5.220;2022-09-17T07:37:13;2.40;;;0.68;;
41456;SDS011;27197;51.752;5.220;2022-09-17T07:39:45;3.05;;;1.00;;
41456;SDS011;27197;51.752;5.220;2022-09-17T07:42:16;3.17;;;0.90;;
41456;SDS011;27197;51.752;5.220;2022-09-17T07:44:46;5.83;;;1.15;;
41456;SDS011;27197;51.752;5.220;2022-09-17T07:47:16;4.53;;;1.02;;
41456;SDS011;27197;51.752;5.220;2022-09-17T07:49:47;4.78;;;1.35;;
41456;SDS011;27197;51.752;5.220;2022-09-17T07:52:18;4.05;;;1.00;;
41456;SDS011;27197;51.752;5.220;2022-09-17T07:54:48;3.05;;;1.20;;
41456;SDS011;27197;51.752;5.220;2022-09-17T07:57:17;3.80;;;0.80;;
41456;SDS011;27197;51.752;5.220;2022-09-17T07:59:47;3.77;;;0.90;;
41456;SDS011;27197;51.752;5.220;2022-09-17T08:02:21;3.22;;;0.93;;
41456;SDS011;27197;51.752;5.220;2022-09-17T08:04:52;2.75;;;0.90;;
41456;SDS011;27197;51.752;5.220;2022-09-17T08:07:22;4.37;;;1.00;;
41456;SDS011;27197;51.752;5.220;2022-09-17T08:09:55;3.00;;;0.80;;
41456;SDS011;27197;51.752;5.220;2022-09-17T08:12:25;2.52;;;0.78;;
41456;SDS011;27197;51.752;5.220;2022-09-17T08:14:57;3.90;;;0.70;;
41456;SDS011;27197;51.752;5.220;2022-09-17T08:17:27;4.80;;;0.98;;
41456;SDS011;27197;51.752;5.220;2022-09-17T08:19:57;3.02;;;0.90;;
41456;SDS011;27197;51.752;5.220;2022-09-17T08:22:28;2.35;;;0.90;;
41456;SDS011;27197;51.752;5.220;2022-09-17T08:24:58;2.83;;;0.70;;
41456;SDS011;27197;51.752;5.220;2022-09-17T08:27:29;5.15;;;1.10;;
41456;SDS011;27197;51.752;5.220;2022-09-17T08:30:01;4.03;;;0.88;;
41456;SDS011;27197;51.752;5.220;2022-09-17T08:32:32;4.47;;;1.10;;
41456;SDS011;27197;51.752;5.220;2022-09-17T08:35:02;4.20;;;1.07;;
41456;SDS011;27197;51.752;5.220;2022-09-17T08:37:32;3.33;;;0.70;;
41456;SDS011;27197;51.752;5.220;2022-09-17T08:40:02;10.20;;;2.62;;
41456;SDS011;27197;51.752;5.220;2022-09-17T08:42:36;16.60;;;2.85;;
41456;SDS011;27197;51.752;5.220;2022-09-17T08:45:10;20.12;;;3.30;;
41456;SDS011;27197;51.752;5.220;2022-09-17T08:47:42;18.80;;;3.55;;
41456;SDS011;27197;51.752;5.220;2022-09-17T08:53:15;18.12;;;3.22;;
41456;SDS011;27197;51.752;5.220;2022-09-17T08:56:04;13.18;;;3.42;;
41456;SDS011;27197;51.752;5.220;2022-09-17T09:04:15;11.45;;;2.40;;
41456;SDS011;27197;51.752;5.220;2022-09-17T09:07:09;12.07;;;2.92;;
41456;SDS011;27197;51.752;5.220;2022-09-17T09:09:42;11.80;;;2.50;;
41456;SDS011;27197;51.752;5.220;2022-09-17T09:12:23;6.97;;;1.92;;
41456;SDS011;27197;51.752;5.220;2022-09-17T09:14:59;7.03;;;2.00;;
41456;SDS011;27197;51.752;5.220;2022-09-17T09:17:34;7.35;;;1.60;;
41456;SDS011;27197;51.752;5.220;2022-09-17T09:20:07;7.87;;;1.98;;
41456;SDS011;27197;51.752;5.220;2022-09-17T09:22:51;5.80;;;1.77;;
41456;SDS011;27197;51.752;5.220;2022-09-17T09:25:23;6.62;;;1.72;;
41456;SDS011;27197;51.752;5.220;2022-09-17T09:33:36;6.85;;;1.90;;
41456;SDS011;27197;51.752;5.220;2022-09-17T09:36:12;4.33;;;1.40;;
41456;SDS011;27197;51.752;5.220;2022-09-17T09:39:01;5.90;;;2.05;;
41456;SDS011;27197;51.752;5.220;2022-09-17T09:41:35;5.55;;;1.60;;
41456;SDS011;27197;51.752;5.220;2022-09-17T09:44:13;6.65;;;1.40;;
41456;SDS011;27197;51.752;5.220;2022-09-17T09:46:48;6.85;;;1.57;;
41456;SDS011;27197;51.752;5.220;2022-09-17T09:57:52;3.40;;;1.40;;
41456;SDS011;27197;51.752;5.220;2022-09-17T10:00:41;2.80;;;1.05;;
41456;SDS011;27197;51.752;5.220;2022-09-17T10:03:23;2.17;;;1.07;;
41456;SDS011;27197;51.752;5.220;2022-09-17T10:05:53;3.72;;;1.07;;
41456;SDS011;27197;51.752;5.220;2022-09-17T10:08:28;3.62;;;0.90;;
41456;SDS011;27197;51.752;5.220;2022-09-17T10:11:04;3.40;;;0.90;;
41456;SDS011;27197;51.752;5.220;2022-09-17T10:13:43;4.37;;;1.17;;
41456;SDS011;27197;51.752;5.220;2022-09-17T10:16:21;1.80;;;0.60;;
41456;SDS011;27197;51.752;5.220;2022-09-17T10:21:37;3.40;;;1.07;;
41456;SDS011;27197;51.752;5.220;2022-09-17T10:27:04;2.92;;;0.90;;
41456;SDS011;27197;51.752;5.220;2022-09-17T10:29:34;4.67;;;1.02;;
41456;SDS011;27197;51.752;5.220;2022-09-17T10:32:12;4.20;;;0.70;;
41456;SDS011;27197;51.752;5.220;2022-09-17T10:34:38;4.45;;;0.80;;
41456;SDS011;27197;51.752;5.220;2022-09-17T10:40:13;3.37;;;1.10;;
41456;SDS011;27197;51.752;5.220;2022-09-17T10:42:34;3.90;;;0.98;;
41456;SDS011;27197;51.752;5.220;2022-09-17T10:45:10;3.37;;;1.02;;
41456;SDS011;27197;51.752;5.220;2022-09-17T10:47:40;3.83;;;0.90;;
41456;SDS011;27197;51.752;5.220;2022-09-17T10:50:19;2.12;;;0.72;;
41456;SDS011;27197;51.752;5.220;2022-09-17T10:52:49;2.52;;;0.70;;
41456;SDS011;27197;51.752;5.220;2022-09-17T10:58:16;3.58;;;1.05;;
41456;SDS011;27197;51.752;5.220;2022-09-17T11:01:05;4.92;;;0.80;;
41456;SDS011;27197;51.752;5.220;2022-09-17T11:03:51;2.52;;;0.80;;
41456;SDS011;27197;51.752;5.220;2022-09-17T11:17:42;3.83;;;0.70;;
41456;SDS011;27197;51.752;5.220;2022-09-17T11:25:43;3.50;;;0.65;;
41456;SDS011;27197;51.752;5.220;2022-09-17T11:28:26;3.25;;;0.90;;
41456;SDS011;27197;51.752;5.220;2022-09-17T11:34:12;5.20;;;1.10;;
41456;SDS011;27197;51.752;5.220;2022-09-17T11:36:57;4.20;;;1.12;;
41456;SDS011;27197;51.752;5.220;2022-09-17T11:39:32;2.75;;;1.00;;
41456;SDS011;27197;51.752;5.220;2022-09-17T11:42:01;4.17;;;0.80;;
41456;SDS011;27197;51.752;5.220;2022-09-17T11:47:24;5.00;;;0.98;;
41456;SDS011;27197;51.752;5.220;2022-09-17T11:49:55;3.67;;;0.80;;
41456;SDS011;27197;51.752;5.220;2022-09-17T11:52:40;1.95;;;0.55;;
41456;SDS011;27197;51.752;5.220;2022-09-17T11:55:18;2.75;;;0.60;;
41456;SDS011;27197;51.752;5.220;2022-09-17T11:57:51;3.98;;;1.10;;
41456;SDS011;27197;51.752;5.220;2022-09-17T12:00:24;3.02;;;1.10;;
41456;SDS011;27197;51.752;5.220;2022-09-17T12:03:12;2.30;;;0.72;;
41456;SDS011;27197;51.752;5.220;2022-09-17T12:05:53;1.75;;;0.60;;
41456;SDS011;27197;51.752;5.220;2022-09-17T12:08:43;3.98;;;0.88;;
41456;SDS011;27197;51.752;5.220;2022-09-17T12:11:14;2.10;;;0.72;;
41456;SDS011;27197;51.752;5.220;2022-09-17T12:13:53;2.75;;;0.70;;
41456;SDS011;27197;51.752;5.220;2022-09-17T12:16:28;6.20;;;1.10;;
41456;SDS011;27197;51.752;5.220;2022-09-17T12:24:25;4.17;;;1.05;;
41456;SDS011;27197;51.752;5.220;2022-09-17T12:30:04;3.27;;;0.80;;
41456;SDS011;27197;51.752;5.220;2022-09-17T12:32:56;2.77;;;1.02;;
41456;SDS011;27197;51.752;5.220;2022-09-17T12:41:09;1.77;;;0.60;;
41456;SDS011;27197;51.752;5.220;2022-09-17T12:55:33;3.75;;;1.10;;
41456;SDS011;27197;51.752;5.220;2022-09-17T13:00:54;2.08;;;0.75;;
41456;SDS011;27197;51.752;5.220;2022-09-17T13:12:03;2.33;;;0.70;;
41456;SDS011;27197;51.752;5.220;2022-09-17T13:14:48;3.67;;;0.82;;
41456;SDS011;27197;51.752;5.220;2022-09-17T13:20:01;4.42;;;1.07;;
41456;SDS011;27197;51.752;5.220;2022-09-17T13:22:41;3.75;;;0.70;;
41456;SDS011;27197;51.752;5.220;2022-09-17T13:25:11;2.92;;;1.07;;
41456;SDS011;27197;51.752;5.220;2022-09-17T13:27:41;2.37;;;0.80;;
41456;SDS011;27197;51.752;5.220;2022-09-17T13:30:15;2.42;;;0.75;;
41456;SDS011;27197;51.752;5.220;2022-09-17T13:32:51;5.10;;;1.60;;
41456;SDS011;27197;51.752;5.220;2022-09-17T13:37:59;6.15;;;0.90;;
41456;SDS011;27197;51.752;5.220;2022-09-17T13:40:32;2.85;;;0.68;;
41456;SDS011;27197;51.752;5.220;2022-09-17T13:43:13;3.35;;;0.93;;
41456;SDS011;27197;51.752;5.220;2022-09-17T13:48:30;4.35;;;1.55;;
41456;SDS011;27197;51.752;5.220;2022-09-17T13:51:45;3.83;;;1.00;;
41456;SDS011;27197;51.752;5.220;2022-09-17T13:53:53;8.65;;;1.07;;
41456;SDS011;27197;51.752;5.220;2022-09-17T13:56:36;3.30;;;1.00;;
41456;SDS011;27197;51.752;5.220;2022-09-17T13:59:19;3.60;;;1.15;;
41456;SDS011;27197;51.752;5.220;2022-09-17T14:02:00;3.85;;;1.02;;
41456;SDS011;27197;51.752;5.220;2022-09-17T14:04:47;3.70;;;1.00;;
41456;SDS011;27197;51.752;5.220;2022-09-17T14:10:45;2.85;;;0.93;;
41456;SDS011;27197;51.752;5.220;2022-09-17T14:12:53;4.08;;;1.02;;
41456;SDS011;27197;51.752;5.220;2022-09-17T14:21:04;1.82;;;0.60;;
41456;SDS011;27197;51.752;5.220;2022-09-17T14:23:44;3.45;;;0.90;;
41456;SDS011;27197;51.752;5.220;2022-09-17T14:26:17;1.30;;;0.80;;
41456;SDS011;27197;51.752;5.220;2022-09-17T14:28:58;3.12;;;1.00;;
41456;SDS011;27197;51.752;5.220;2022-09-17T14:31:26;4.53;;;1.20;;
41456;SDS011;27197;51.752;5.220;2022-09-17T14:33:55;2.95;;;0.90;;
41456;SDS011;27197;51.752;5.220;2022-09-17T14:36:33;4.70;;;1.00;;
41456;SDS011;27197;51.752;5.220;2022-09-17T14:39:01;3.52;;;0.90;;
41456;SDS011;27197;51.752;5.220;2022-09-17T14:41:34;2.87;;;1.02;;
41456;SDS011;27197;51.752;5.220;2022-09-17T14:44:06;2.25;;;0.65;;
41456;SDS011;27197;51.752;5.220;2022-09-17T14:46:48;2.80;;;0.80;;
41456;SDS011;27197;51.752;5.220;2022-09-17T14:49:35;3.12;;;1.00;;
41456;SDS011;27197;51.752;5.220;2022-09-17T14:55:13;3.27;;;1.00;;
41456;SDS011;27197;51.752;5.220;2022-09-17T14:57:54;3.75;;;1.10;;
41456;SDS011;27197;51.752;5.220;2022-09-17T15:00:25;3.55;;;1.07;;
41456;SDS011;27197;51.752;5.220;2022-09-17T15:02:56;3.90;;;1.10;;
41456;SDS011;27197;51.752;5.220;2022-09-17T15:05:30;3.00;;;1.00;;
41456;SDS011;27197;51.752;5.220;2022-09-17T15:13:31;3.50;;;1.02;;
41456;SDS011;27197;51.752;5.220;2022-09-17T15:16:24;2.77;;;1.10;;
41456;SDS011;27197;51.752;5.220;2022-09-17T15:21:42;3.67;;;1.30;;
41456;SDS011;27197;51.752;5.220;2022-09-17T15:27:13;1.62;;;0.80;;
41456;SDS011;27197;51.752;5.220;2022-09-17T15:30:29;4.67;;;1.30;;
41456;SDS011;27197;51.752;5.220;2022-09-17T15:32:29;3.15;;;1.05;;
41456;SDS011;27197;51.752;5.220;2022-09-17T15:37:49;2.20;;;0.93;;
41456;SDS011;27197;51.752;5.220;2022-09-17T15:40:31;3.05;;;0.88;;
41456;SDS011;27197;51.752;5.220;2022-09-17T15:43:20;2.37;;;0.85;;
41456;SDS011;27197;51.752;5.220;2022-09-17T15:45:56;3.42;;;0.95;;
41456;SDS011;27197;51.752;5.220;2022-09-17T15:51:26;2.12;;;0.82;;
41456;SDS011;27197;51.752;5.220;2022-09-17T15:53:59;4.58;;;1.10;;
41456;SDS011;27197;51.752;5.220;2022-09-17T15:56:35;4.28;;;1.22;;
41456;SDS011;27197;51.752;5.220;2022-09-17T16:01:53;2.95;;;0.98;;
41456;SDS011;27197;51.752;5.220;2022-09-17T16:04:27;3.02;;;0.93;;
41456;SDS011;27197;51.752;5.220;2022-09-17T16:07:16;2.98;;;0.90;;
41456;SDS011;27197;51.752;5.220;2022-09-17T16:09:42;2.80;;;0.82;;
41456;SDS011;27197;51.752;5.220;2022-09-17T16:12:19;3.95;;;1.00;;
41456;SDS011;27197;51.752;5.220;2022-09-17T16:14:54;1.50;;;0.75;;
41456;SDS011;27197;51.752;5.220;2022-09-17T16:17:30;4.60;;;0.80;;
41456;SDS011;27197;51.752;5.220;2022-09-17T16:20:15;1.87;;;0.82;;
41456;SDS011;27197;51.752;5.220;2022-09-17T16:22:48;4.28;;;1.15;;
41456;SDS011;27197;51.752;5.220;2022-09-17T16:25:23;3.52;;;0.90;;
41456;SDS011;27197;51.752;5.220;2022-09-17T16:28:02;2.30;;;0.70;;
41456;SDS011;27197;51.752;5.220;2022-09-17T16:30:43;3.05;;;0.75;;
41456;SDS011;27197;51.752;5.220;2022-09-17T16:33:15;3.15;;;1.20;;
41456;SDS011;27197;51.752;5.220;2022-09-17T16:35:49;3.52;;;0.80;;
41456;SDS011;27197;51.752;5.220;2022-09-17T16:38:21;5.03;;;1.30;;
41456;SDS011;27197;51.752;5.220;2022-09-17T16:41:10;2.35;;;0.80;;
41456;SDS011;27197;51.752;5.220;2022-09-17T16:43:42;4.75;;;1.02;;
41456;SDS011;27197;51.752;5.220;2022-09-17T16:46:12;3.00;;;0.70;;
41456;SDS011;27197;51.752;5.220;2022-09-17T16:48:43;3.45;;;0.80;;
41456;SDS011;27197;51.752;5.220;2022-09-17T16:51:14;2.35;;;1.00;;
41456;SDS011;27197;51.752;5.220;2022-09-17T16:53:47;3.47;;;0.90;;
41456;SDS011;27197;51.752;5.220;2022-09-17T16:56:18;2.85;;;0.82;;
41456;SDS011;27197;51.752;5.220;2022-09-17T16:58:47;3.80;;;0.80;;
41456;SDS011;27197;51.752;5.220;2022-09-17T17:01:19;3.30;;;1.10;;
41456;SDS011;27197;51.752;5.220;2022-09-17T17:03:50;2.50;;;0.90;;
41456;SDS011;27197;51.752;5.220;2022-09-17T17:06:22;2.85;;;1.02;;
41456;SDS011;27197;51.752;5.220;2022-09-17T17:08:54;2.83;;;1.10;;
41456;SDS011;27197;51.752;5.220;2022-09-17T17:11:26;3.77;;;1.25;;
41456;SDS011;27197;51.752;5.220;2022-09-17T17:13:56;3.12;;;0.90;;
41456;SDS011;27197;51.752;5.220;2022-09-17T17:16:28;4.10;;;1.10;;
41456;SDS011;27197;51.752;5.220;2022-09-17T17:18:58;2.80;;;1.05;;
41456;SDS011;27197;51.752;5.220;2022-09-17T17:21:30;3.35;;;0.80;;
41456;SDS011;27197;51.752;5.220;2022-09-17T17:24:00;3.12;;;0.78;;
41456;SDS011;27197;51.752;5.220;2022-09-17T17:26:32;3.40;;;1.00;;
41456;SDS011;27197;51.752;5.220;2022-09-17T17:29:07;2.65;;;0.70;;
41456;SDS011;27197;51.752;5.220;2022-09-17T17:31:36;3.15;;;0.95;;
41456;SDS011;27197;51.752;5.220;2022-09-17T17:34:06;4.33;;;1.10;;
41456;SDS011;27197;51.752;5.220;2022-09-17T17:36:35;3.22;;;0.80;;
41456;SDS011;27197;51.752;5.220;2022-09-17T17:39:04;4.25;;;0.82;;
41456;SDS011;27197;51.752;5.220;2022-09-17T17:41:34;3.33;;;0.90;;
41456;SDS011;27197;51.752;5.220;2022-09-17T17:44:05;2.95;;;0.90;;
41456;SDS011;27197;51.752;5.220;2022-09-17T17:46:37;3.50;;;0.98;;
41456;SDS011;27197;51.752;5.220;2022-09-17T17:49:07;3.98;;;0.90;;
41456;SDS011;27197;51.752;5.220;2022-09-17T17:51:37;4.75;;;1.00;;
41456;SDS011;27197;51.752;5.220;2022-09-17T17:54:10;2.67;;;0.93;;
41456;SDS011;27197;51.752;5.220;2022-09-17T17:56:42;3.08;;;0.90;;
41456;SDS011;27197;51.752;5.220;2022-09-17T17:59:13;4.10;;;1.20;;
41456;SDS011;27197;51.752;5.220;2022-09-17T18:01:45;5.47;;;0.65;;
41456;SDS011;27197;51.752;5.220;2022-09-17T18:04:16;2.83;;;0.80;;
41456;SDS011;27197;51.752;5.220;2022-09-17T18:06:46;2.85;;;1.12;;
41456;SDS011;27197;51.752;5.220;2022-09-17T18:09:20;3.40;;;1.00;;
41456;SDS011;27197;51.752;5.220;2022-09-17T18:11:50;2.67;;;0.65;;
41456;SDS011;27197;51.752;5.220;2022-09-17T18:14:19;2.15;;;0.55;;